sensor_id;sensor_type;location;lat;lon;timestamp;temperature;humidity
3001;DHT22;1510;51.072;6.678;2023-11-21T00:00:34;7.40;99.90
3001;DHT22;1510;51.072;6.678;2023-11-21T00:03:03;7.40;99.90
3001;DHT22;1510;51.072;6.678;2023-11-21T00:05:30;7.40;99.90
3001;DHT22;1510;51.072;6.678;2023-11-21T00:07:57;7.50;99.90
3001;DHT22;1510;51.072;6.678;2023-11-21T00:10:24;7.60;99.90
3001;DHT22;1510;51.072;6.678;2023-11-21T00:12:51;7.70;99.90
3001;DHT22;1510;51.072;6.678;2023-11-21T00:15:20;7.80;99.90
3001;DHT22;1510;51.072;6.678;2023-11-21T00:17:47;7.80;99.90
3001;DHT22;1510;51.072;6.678;2023-11-21T00:20:15;7.80;99.90
3001;DHT22;1510;51.072;6.678;2023-11-21T00:22:42;7.70;99.90
3001;DHT22;1510;51.072;6.678;2023-11-21T00:25:09;7.70;99.90
3001;DHT22;1510;51.072;6.678;2023-11-21T00:27:36;7.60;99.90
3001;DHT22;1510;51.072;6.678;2023-11-21T00:30:04;7.50;99.90
3001;DHT22;1510;51.072;6.678;2023-11-21T00:32:32;7.50;99.90
3001;DHT22;1510;51.072;6.678;2023-11-21T00:34:59;7.40;99.90
3001;DHT22;1510;51.072;6.678;2023-11-21T00:37:27;7.30;99.90
3001;DHT22;1510;51.072;6.678;2023-11-21T00:39:54;7.30;99.90
3001;DHT22;1510;51.072;6.678;2023-11-21T00:42:22;7.20;99.90
3001;DHT22;1510;51.072;6.678;2023-11-21T00:44:49;7.30;99.90
3001;DHT22;1510;51.072;6.678;2023-11-21T00:47:15;7.30;99.90
3001;DHT22;1510;51.072;6.678;2023-11-21T00:49:42;7.40;99.90
3001;DHT22;1510;51.072;6.678;2023-11-21T00:52:09;7.40;99.90
3001;DHT22;1510;51.072;6.678;2023-11-21T00:54:38;7.40;99.90
3001;DHT22;1510;51.072;6.678;2023-11-21T00:57:05;7.40;99.90
3001;DHT22;1510;51.072;6.678;2023-11-21T00:59:34;7.40;99.90
3001;DHT22;1510;51.072;6.678;2023-11-21T01:02:01;7.50;99.90
3001;DHT22;1510;51.072;6.678;2023-11-21T01:04:28;7.40;99.90
3001;DHT22;1510;51.072;6.678;2023-11-21T01:06:54;7.40;99.90
3001;DHT22;1510;51.072;6.678;2023-11-21T01:09:21;7.30;99.90
3001;DHT22;1510;51.072;6.678;2023-11-21T01:11:50;7.20;99.90
3001;DHT22;1510;51.072;6.678;2023-11-21T01:14:17;7.10;99.90
3001;DHT22;1510;51.072;6.678;2023-11-21T01:16:44;6.90;99.90
3001;DHT22;1510;51.072;6.678;2023-11-21T01:19:11;6.80;99.90
3001;DHT22;1510;51.072;6.678;2023-11-21T01:21:38;6.70;99.90
3001;DHT22;1510;51.072;6.678;2023-11-21T01:24:05;6.60;99.90
3001;DHT22;1510;51.072;6.678;2023-11-21T01:26:33;6.60;99.90
3001;DHT22;1510;51.072;6.678;2023-11-21T01:29:01;6.50;99.90
3001;DHT22;1510;51.072;6.678;2023-11-21T01:31:28;6.50;99.90
3001;DHT22;1510;51.072;6.678;2023-11-21T01:33:55;6.40;99.90
3001;DHT22;1510;51.072;6.678;2023-11-21T01:36:22;6.30;99.90
3001;DHT22;1510;51.072;6.678;2023-11-21T01:38:49;6.20;99.90
3001;DHT22;1510;51.072;6.678;2023-11-21T01:41:15;6.20;99.90
3001;DHT22;1510;51.072;6.678;2023-11-21T01:43:41;6.20;99.90
3001;DHT22;1510;51.072;6.678;2023-11-21T01:46:10;6.30;99.90
3001;DHT22;1510;51.072;6.678;2023-11-21T01:48:37;6.40;99.90
3001;DHT22;1510;51.072;6.678;2023-11-21T01:51:04;6.50;99.90
3001;DHT22;1510;51.072;6.678;2023-11-21T01:53:31;6.50;99.90
3001;DHT22;1510;51.072;6.678;2023-11-21T01:55:58;6.50;99.90
3001;DHT22;1510;51.072;6.678;2023-11-21T01:58:25;6.40;99.90
3001;DHT22;1510;51.072;6.678;2023-11-21T02:00:52;6.40;99.90
3001;DHT22;1510;51.072;6.678;2023-11-21T02:03:21;6.40;99.90
3001;DHT22;1510;51.072;6.678;2023-11-21T02:05:48;6.50;99.90
3001;DHT22;1510;51.072;6.678;2023-11-21T02:08:16;6.60;99.90
3001;DHT22;1510;51.072;6.678;2023-11-21T02:10:42;6.70;99.90
3001;DHT22;1510;51.072;6.678;2023-11-21T02:13:09;6.70;99.90
3001;DHT22;1510;51.072;6.678;2023-11-21T02:15:36;6.80;99.90
3001;DHT22;1510;51.072;6.678;2023-11-21T02:18:04;6.80;99.90
3001;DHT22;1510;51.072;6.678;2023-11-21T02:20:33;6.90;99.90
3001;DHT22;1510;51.072;6.678;2023-11-21T02:23:01;6.90;99.90
3001;DHT22;1510;51.072;6.678;2023-11-21T02:25:29;7.00;99.90
3001;DHT22;1510;51.072;6.678;2023-11-21T02:27:58;7.00;99.90
3001;DHT22;1510;51.072;6.678;2023-11-21T02:30:26;7.10;99.90
3001;DHT22;1510;51.072;6.678;2023-11-21T02:32:54;7.10;99.90
3001;DHT22;1510;51.072;6.678;2023-11-21T02:35:22;7.20;99.90
3001;DHT22;1510;51.072;6.678;2023-11-21T02:37:51;7.20;99.90
3001;DHT22;1510;51.072;6.678;2023-11-21T02:40:19;7.20;99.90
3001;DHT22;1510;51.072;6.678;2023-11-21T02:42:47;7.30;99.90
3001;DHT22;1510;51.072;6.678;2023-11-21T02:45:14;7.30;99.90
3001;DHT22;1510;51.072;6.678;2023-11-21T02:47:42;7.40;99.90
3001;DHT22;1510;51.072;6.678;2023-11-21T02:50:09;7.40;99.90
3001;DHT22;1510;51.072;6.678;2023-11-21T02:52:36;7.50;99.90
3001;DHT22;1510;51.072;6.678;2023-11-21T02:55:04;7.50;99.90
3001;DHT22;1510;51.072;6.678;2023-11-21T02:57:34;7.60;99.90
3001;DHT22;1510;51.072;6.678;2023-11-21T03:00:01;7.60;99.90
3001;DHT22;1510;51.072;6.678;2023-11-21T03:02:28;7.60;99.90
3001;DHT22;1510;51.072;6.678;2023-11-21T03:04:54;7.60;99.90
3001;DHT22;1510;51.072;6.678;2023-11-21T03:07:21;7.60;99.90
3001;DHT22;1510;51.072;6.678;2023-11-21T03:09:48;7.60;99.90
3001;DHT22;1510;51.072;6.678;2023-11-21T03:12:16;7.60;99.90
3001;DHT22;1510;51.072;6.678;2023-11-21T03:14:44;7.60;99.90
3001;DHT22;1510;51.072;6.678;2023-11-21T03:17:11;7.60;99.90
3001;DHT22;1510;51.072;6.678;2023-11-21T03:19:41;7.60;99.90
3001;DHT22;1510;51.072;6.678;2023-11-21T03:22:08;7.60;99.90
3001;DHT22;1510;51.072;6.678;2023-11-21T03:24:35;7.60;99.90
3001;DHT22;1510;51.072;6.678;2023-11-21T03:27:04;7.60;99.90
3001;DHT22;1510;51.072;6.678;2023-11-21T03:29:31;7.60;99.90
3001;DHT22;1510;51.072;6.678;2023-11-21T03:32:14;7.60;99.90
3001;DHT22;1510;51.072;6.678;2023-11-21T03:34:53;7.60;99.90
3001;DHT22;1510;51.072;6.678;2023-11-21T03:37:21;7.70;99.90
3001;DHT22;1510;51.072;6.678;2023-11-21T03:39:48;7.60;99.90
3001;DHT22;1510;51.072;6.678;2023-11-21T03:42:15;7.60;99.90
3001;DHT22;1510;51.072;6.678;2023-11-21T03:44:42;7.50;99.90
3001;DHT22;1510;51.072;6.678;2023-11-21T03:47:09;7.50;99.90
3001;DHT22;1510;51.072;6.678;2023-11-21T03:49:38;7.50;99.90
3001;DHT22;1510;51.072;6.678;2023-11-21T03:52:06;7.50;99.90
3001;DHT22;1510;51.072;6.678;2023-11-21T03:54:34;7.40;99.90
3001;DHT22;1510;51.072;6.678;2023-11-21T03:57:02;7.50;99.90
3001;DHT22;1510;51.072;6.678;2023-11-21T03:59:28;7.50;99.90
3001;DHT22;1510;51.072;6.678;2023-11-21T04:01:56;7.50;99.90
3001;DHT22;1510;51.072;6.678;2023-11-21T04:04:23;7.50;99.90
3001;DHT22;1510;51.072;6.678;2023-11-21T04:06:51;7.50;99.90
3001;DHT22;1510;51.072;6.678;2023-11-21T04:09:19;7.50;99.90
3001;DHT22;1510;51.072;6.678;2023-11-21T04:11:45;7.50;99.90
3001;DHT22;1510;51.072;6.678;2023-11-21T04:14:13;7.50;99.90
3001;DHT22;1510;51.072;6.678;2023-11-21T04:16:40;7.50;99.90
3001;DHT22;1510;51.072;6.678;2023-11-21T04:19:07;7.40;99.90
3001;DHT22;1510;51.072;6.678;2023-11-21T04:21:35;7.50;99.90
3001;DHT22;1510;51.072;6.678;2023-11-21T04:24:05;7.50;99.90
3001;DHT22;1510;51.072;6.678;2023-11-21T04:26:32;7.50;99.90
3001;DHT22;1510;51.072;6.678;2023-11-21T04:28:59;7.50;99.90
3001;DHT22;1510;51.072;6.678;2023-11-21T04:31:25;7.50;99.90
3001;DHT22;1510;51.072;6.678;2023-11-21T04:33:52;7.40;99.90
3001;DHT22;1510;51.072;6.678;2023-11-21T04:36:19;7.50;99.90
3001;DHT22;1510;51.072;6.678;2023-11-21T04:38:46;7.40;99.90
3001;DHT22;1510;51.072;6.678;2023-11-21T04:41:14;7.50;99.90
3001;DHT22;1510;51.072;6.678;2023-11-21T04:43:40;7.50;99.90
3001;DHT22;1510;51.072;6.678;2023-11-21T04:46:08;7.40;99.90
3001;DHT22;1510;51.072;6.678;2023-11-21T04:48:35;7.40;99.90
3001;DHT22;1510;51.072;6.678;2023-11-21T04:51:02;7.40;99.90
3001;DHT22;1510;51.072;6.678;2023-11-21T04:53:29;7.40;99.90
3001;DHT22;1510;51.072;6.678;2023-11-21T04:55:56;7.50;99.90
3001;DHT22;1510;51.072;6.678;2023-11-21T04:58:24;7.40;99.90
3001;DHT22;1510;51.072;6.678;2023-11-21T05:00:51;7.50;99.90
3001;DHT22;1510;51.072;6.678;2023-11-21T05:03:18;7.50;99.90
3001;DHT22;1510;51.072;6.678;2023-11-21T05:05:46;7.50;99.90
3001;DHT22;1510;51.072;6.678;2023-11-21T05:08:13;7.50;99.90
3001;DHT22;1510;51.072;6.678;2023-11-21T05:10:40;7.40;99.90
3001;DHT22;1510;51.072;6.678;2023-11-21T05:13:07;7.50;99.90
3001;DHT22;1510;51.072;6.678;2023-11-21T05:15:37;7.50;99.90
3001;DHT22;1510;51.072;6.678;2023-11-21T05:18:05;7.50;99.90
3001;DHT22;1510;51.072;6.678;2023-11-21T05:20:32;7.50;99.90
3001;DHT22;1510;51.072;6.678;2023-11-21T05:22:59;7.50;99.90
3001;DHT22;1510;51.072;6.678;2023-11-21T05:25:25;7.50;99.90
3001;DHT22;1510;51.072;6.678;2023-11-21T05:27:52;7.60;99.90
3001;DHT22;1510;51.072;6.678;2023-11-21T05:30:21;7.50;99.90
3001;DHT22;1510;51.072;6.678;2023-11-21T05:32:49;7.50;99.90
3001;DHT22;1510;51.072;6.678;2023-11-21T05:35:16;7.50;99.90
3001;DHT22;1510;51.072;6.678;2023-11-21T05:37:43;7.60;99.90
3001;DHT22;1510;51.072;6.678;2023-11-21T05:40:11;7.60;99.90
3001;DHT22;1510;51.072;6.678;2023-11-21T05:42:39;7.60;99.90
3001;DHT22;1510;51.072;6.678;2023-11-21T05:45:07;7.60;99.90
3001;DHT22;1510;51.072;6.678;2023-11-21T05:47:37;7.60;99.90
3001;DHT22;1510;51.072;6.678;2023-11-21T05:50:07;7.60;99.90
3001;DHT22;1510;51.072;6.678;2023-11-21T05:52:36;7.50;99.90
3001;DHT22;1510;51.072;6.678;2023-11-21T05:55:03;7.60;99.90
3001;DHT22;1510;51.072;6.678;2023-11-21T05:57:32;7.60;99.90
3001;DHT22;1510;51.072;6.678;2023-11-21T05:59:59;7.70;99.90
3001;DHT22;1510;51.072;6.678;2023-11-21T06:02:28;7.70;99.90
3001;DHT22;1510;51.072;6.678;2023-11-21T06:04:55;7.70;99.90
3001;DHT22;1510;51.072;6.678;2023-11-21T06:07:24;7.70;99.90
3001;DHT22;1510;51.072;6.678;2023-11-21T06:09:50;7.70;99.90
3001;DHT22;1510;51.072;6.678;2023-11-21T06:12:17;7.70;99.90
3001;DHT22;1510;51.072;6.678;2023-11-21T06:14:46;7.70;99.90
3001;DHT22;1510;51.072;6.678;2023-11-21T06:17:13;7.70;99.90
3001;DHT22;1510;51.072;6.678;2023-11-21T06:19:40;7.70;99.90
3001;DHT22;1510;51.072;6.678;2023-11-21T06:22:07;7.70;99.90
3001;DHT22;1510;51.072;6.678;2023-11-21T06:24:36;7.80;99.90
3001;DHT22;1510;51.072;6.678;2023-11-21T06:27:04;7.80;99.90
3001;DHT22;1510;51.072;6.678;2023-11-21T06:29:31;7.90;99.90
3001;DHT22;1510;51.072;6.678;2023-11-21T06:31:58;7.90;99.90
3001;DHT22;1510;51.072;6.678;2023-11-21T06:34:25;8.00;99.90
3001;DHT22;1510;51.072;6.678;2023-11-21T06:36:53;8.00;99.90
3001;DHT22;1510;51.072;6.678;2023-11-21T06:39:20;8.00;99.90
3001;DHT22;1510;51.072;6.678;2023-11-21T06:41:49;8.10;99.90
3001;DHT22;1510;51.072;6.678;2023-11-21T06:44:16;8.10;99.90
3001;DHT22;1510;51.072;6.678;2023-11-21T06:46:43;8.10;99.90
3001;DHT22;1510;51.072;6.678;2023-11-21T06:49:10;8.20;99.90
3001;DHT22;1510;51.072;6.678;2023-11-21T06:51:37;8.20;99.90
3001;DHT22;1510;51.072;6.678;2023-11-21T06:54:06;8.20;99.90
3001;DHT22;1510;51.072;6.678;2023-11-21T06:56:32;8.20;99.90
3001;DHT22;1510;51.072;6.678;2023-11-21T06:59:01;8.20;99.90
3001;DHT22;1510;51.072;6.678;2023-11-21T07:01:28;8.20;99.90
3001;DHT22;1510;51.072;6.678;2023-11-21T07:03:55;8.20;99.90
3001;DHT22;1510;51.072;6.678;2023-11-21T07:06:22;8.20;99.90
3001;DHT22;1510;51.072;6.678;2023-11-21T07:08:49;8.20;99.90
3001;DHT22;1510;51.072;6.678;2023-11-21T07:11:16;8.10;99.90
3001;DHT22;1510;51.072;6.678;2023-11-21T07:13:42;8.10;99.90
3001;DHT22;1510;51.072;6.678;2023-11-21T07:16:11;8.00;99.90
3001;DHT22;1510;51.072;6.678;2023-11-21T07:18:38;8.00;99.90
3001;DHT22;1510;51.072;6.678;2023-11-21T07:21:06;8.00;99.90
3001;DHT22;1510;51.072;6.678;2023-11-21T07:23:34;8.00;99.90
3001;DHT22;1510;51.072;6.678;2023-11-21T07:26:02;8.00;99.90
3001;DHT22;1510;51.072;6.678;2023-11-21T07:28:29;8.10;99.90
3001;DHT22;1510;51.072;6.678;2023-11-21T07:30:56;8.10;99.90
3001;DHT22;1510;51.072;6.678;2023-11-21T07:33:26;8.10;99.90
3001;DHT22;1510;51.072;6.678;2023-11-21T07:35:53;8.10;99.90
3001;DHT22;1510;51.072;6.678;2023-11-21T07:38:20;8.20;99.90
3001;DHT22;1510;51.072;6.678;2023-11-21T07:40:47;8.20;99.90
3001;DHT22;1510;51.072;6.678;2023-11-21T07:43:14;8.30;99.90
3001;DHT22;1510;51.072;6.678;2023-11-21T07:45:41;8.30;99.90
3001;DHT22;1510;51.072;6.678;2023-11-21T07:48:08;8.30;99.90
3001;DHT22;1510;51.072;6.678;2023-11-21T07:50:36;8.30;99.90
3001;DHT22;1510;51.072;6.678;2023-11-21T07:53:03;8.30;99.90
3001;DHT22;1510;51.072;6.678;2023-11-21T07:55:31;8.40;99.90
3001;DHT22;1510;51.072;6.678;2023-11-21T07:57:58;8.40;99.90
3001;DHT22;1510;51.072;6.678;2023-11-21T08:00:25;8.40;99.90
3001;DHT22;1510;51.072;6.678;2023-11-21T08:02:55;8.50;99.90
3001;DHT22;1510;51.072;6.678;2023-11-21T08:05:22;8.50;99.90
3001;DHT22;1510;51.072;6.678;2023-11-21T08:07:50;8.50;99.90
3001;DHT22;1510;51.072;6.678;2023-11-21T08:10:17;8.50;99.90
3001;DHT22;1510;51.072;6.678;2023-11-21T08:12:44;8.50;99.90
3001;DHT22;1510;51.072;6.678;2023-11-21T08:15:12;8.50;99.90
3001;DHT22;1510;51.072;6.678;2023-11-21T08:17:38;8.50;99.90
3001;DHT22;1510;51.072;6.678;2023-11-21T08:20:06;8.60;99.90
3001;DHT22;1510;51.072;6.678;2023-11-21T08:22:34;8.60;99.90
3001;DHT22;1510;51.072;6.678;2023-11-21T08:25:03;8.60;99.90
3001;DHT22;1510;51.072;6.678;2023-11-21T08:27:30;8.70;99.90
3001;DHT22;1510;51.072;6.678;2023-11-21T08:29:57;8.70;99.90
3001;DHT22;1510;51.072;6.678;2023-11-21T08:32:24;8.80;99.90
3001;DHT22;1510;51.072;6.678;2023-11-21T08:34:50;8.90;99.90
3001;DHT22;1510;51.072;6.678;2023-11-21T08:37:17;8.90;99.90
3001;DHT22;1510;51.072;6.678;2023-11-21T08:39:44;9.00;99.90
3001;DHT22;1510;51.072;6.678;2023-11-21T08:42:13;9.10;99.90
3001;DHT22;1510;51.072;6.678;2023-11-21T08:44:40;9.20;99.90
3001;DHT22;1510;51.072;6.678;2023-11-21T08:47:07;9.30;99.90
3001;DHT22;1510;51.072;6.678;2023-11-21T08:49:34;9.30;99.90
3001;DHT22;1510;51.072;6.678;2023-11-21T08:52:01;9.40;99.90
3001;DHT22;1510;51.072;6.678;2023-11-21T08:54:28;9.40;99.90
3001;DHT22;1510;51.072;6.678;2023-11-21T08:56:55;9.40;99.90
3001;DHT22;1510;51.072;6.678;2023-11-21T08:59:24;9.40;99.90
3001;DHT22;1510;51.072;6.678;2023-11-21T09:01:51;9.40;99.90
3001;DHT22;1510;51.072;6.678;2023-11-21T09:04:18;9.40;99.90
3001;DHT22;1510;51.072;6.678;2023-11-21T09:06:45;9.50;99.90
3001;DHT22;1510;51.072;6.678;2023-11-21T09:09:12;9.50;99.90
3001;DHT22;1510;51.072;6.678;2023-11-21T09:11:39;9.50;99.90
3001;DHT22;1510;51.072;6.678;2023-11-21T09:14:06;9.40;99.90
3001;DHT22;1510;51.072;6.678;2023-11-21T09:16:35;9.50;99.90
3001;DHT22;1510;51.072;6.678;2023-11-21T09:19:02;9.60;99.90
3001;DHT22;1510;51.072;6.678;2023-11-21T09:21:31;9.60;99.90
3001;DHT22;1510;51.072;6.678;2023-11-21T09:23:58;9.70;99.90
3001;DHT22;1510;51.072;6.678;2023-11-21T09:26:25;9.70;99.90
3001;DHT22;1510;51.072;6.678;2023-11-21T09:28:52;9.70;99.90
3001;DHT22;1510;51.072;6.678;2023-11-21T09:31:19;9.70;99.90
3001;DHT22;1510;51.072;6.678;2023-11-21T09:33:49;9.70;99.90
3001;DHT22;1510;51.072;6.678;2023-11-21T09:36:16;9.70;99.90
3001;DHT22;1510;51.072;6.678;2023-11-21T09:38:43;9.70;99.90
3001;DHT22;1510;51.072;6.678;2023-11-21T09:41:18;9.60;99.90
3001;DHT22;1510;51.072;6.678;2023-11-21T09:43:47;9.60;99.90
3001;DHT22;1510;51.072;6.678;2023-11-21T09:46:18;9.60;99.90
3001;DHT22;1510;51.072;6.678;2023-11-21T09:48:51;9.70;99.90
3001;DHT22;1510;51.072;6.678;2023-11-21T09:51:19;9.80;99.90
3001;DHT22;1510;51.072;6.678;2023-11-21T09:53:50;9.80;99.90
3001;DHT22;1510;51.072;6.678;2023-11-21T09:56:18;9.90;99.90
3001;DHT22;1510;51.072;6.678;2023-11-21T09:58:51;10.00;99.90
3001;DHT22;1510;51.072;6.678;2023-11-21T10:01:19;10.20;99.90
3001;DHT22;1510;51.072;6.678;2023-11-21T10:03:48;10.30;99.90
3001;DHT22;1510;51.072;6.678;2023-11-21T10:06:18;10.50;99.90
3001;DHT22;1510;51.072;6.678;2023-11-21T10:08:46;10.60;99.90
3001;DHT22;1510;51.072;6.678;2023-11-21T10:11:14;10.70;99.90
3001;DHT22;1510;51.072;6.678;2023-11-21T10:13:45;10.80;99.90
3001;DHT22;1510;51.072;6.678;2023-11-21T10:16:15;10.70;99.90
3001;DHT22;1510;51.072;6.678;2023-11-21T10:18:49;10.70;99.90
3001;DHT22;1510;51.072;6.678;2023-11-21T10:21:19;10.70;99.90
3001;DHT22;1510;51.072;6.678;2023-11-21T10:23:47;10.80;99.90
3001;DHT22;1510;51.072;6.678;2023-11-21T10:26:14;10.80;99.90
3001;DHT22;1510;51.072;6.678;2023-11-21T10:28:42;10.90;99.90
3001;DHT22;1510;51.072;6.678;2023-11-21T10:31:22;10.90;99.90
3001;DHT22;1510;51.072;6.678;2023-11-21T10:33:51;10.80;99.90
3001;DHT22;1510;51.072;6.678;2023-11-21T10:36:28;10.90;99.90
3001;DHT22;1510;51.072;6.678;2023-11-21T10:38:55;10.80;99.90
3001;DHT22;1510;51.072;6.678;2023-11-21T10:41:22;11.00;99.90
3001;DHT22;1510;51.072;6.678;2023-11-21T10:43:53;11.00;99.90
3001;DHT22;1510;51.072;6.678;2023-11-21T10:46:21;11.00;99.90
3001;DHT22;1510;51.072;6.678;2023-11-21T10:48:53;11.00;99.90
3001;DHT22;1510;51.072;6.678;2023-11-21T10:51:23;10.90;99.90
3001;DHT22;1510;51.072;6.678;2023-11-21T10:53:51;11.10;99.90
3001;DHT22;1510;51.072;6.678;2023-11-21T10:56:18;11.10;99.90
3001;DHT22;1510;51.072;6.678;2023-11-21T10:58:49;11.10;99.90
3001;DHT22;1510;51.072;6.678;2023-11-21T11:01:18;11.10;99.90
3001;DHT22;1510;51.072;6.678;2023-11-21T11:03:47;11.00;99.90
3001;DHT22;1510;51.072;6.678;2023-11-21T11:06:16;11.00;99.90
3001;DHT22;1510;51.072;6.678;2023-11-21T11:08:44;11.00;99.90
3001;DHT22;1510;51.072;6.678;2023-11-21T11:11:11;11.00;99.90
3001;DHT22;1510;51.072;6.678;2023-11-21T11:13:43;11.00;99.90
3001;DHT22;1510;51.072;6.678;2023-11-21T11:16:12;11.10;99.90
3001;DHT22;1510;51.072;6.678;2023-11-21T11:18:43;11.10;99.90
3001;DHT22;1510;51.072;6.678;2023-11-21T11:21:22;11.10;99.90
3001;DHT22;1510;51.072;6.678;2023-11-21T11:24:11;11.00;99.90
3001;DHT22;1510;51.072;6.678;2023-11-21T11:26:47;10.80;99.90
3001;DHT22;1510;51.072;6.678;2023-11-21T11:29:26;10.90;99.90
3001;DHT22;1510;51.072;6.678;2023-11-21T11:32:03;10.70;99.90
3001;DHT22;1510;51.072;6.678;2023-11-21T11:34:35;10.70;99.90
3001;DHT22;1510;51.072;6.678;2023-11-21T11:37:06;10.70;99.90
3001;DHT22;1510;51.072;6.678;2023-11-21T11:39:36;10.70;99.90
3001;DHT22;1510;51.072;6.678;2023-11-21T11:42:07;10.70;99.90
3001;DHT22;1510;51.072;6.678;2023-11-21T11:44:51;10.60;99.90
3001;DHT22;1510;51.072;6.678;2023-11-21T11:47:23;10.60;99.90
3001;DHT22;1510;51.072;6.678;2023-11-21T11:50:00;10.50;99.90
3001;DHT22;1510;51.072;6.678;2023-11-21T11:52:35;10.60;99.90
3001;DHT22;1510;51.072;6.678;2023-11-21T11:55:03;10.50;99.90
3001;DHT22;1510;51.072;6.678;2023-11-21T11:57:30;10.50;99.90
3001;DHT22;1510;51.072;6.678;2023-11-21T12:00:09;10.40;99.90
3001;DHT22;1510;51.072;6.678;2023-11-21T12:02:37;10.40;99.90
3001;DHT22;1510;51.072;6.678;2023-11-21T12:05:09;10.40;99.90
3001;DHT22;1510;51.072;6.678;2023-11-21T12:07:45;10.40;99.90
3001;DHT22;1510;51.072;6.678;2023-11-21T12:10:14;10.30;99.90
3001;DHT22;1510;51.072;6.678;2023-11-21T12:12:45;10.30;99.90
3001;DHT22;1510;51.072;6.678;2023-11-21T12:15:12;10.50;99.90
3001;DHT22;1510;51.072;6.678;2023-11-21T12:17:39;10.60;99.90
3001;DHT22;1510;51.072;6.678;2023-11-21T12:20:10;10.70;99.90
3001;DHT22;1510;51.072;6.678;2023-11-21T12:22:42;11.00;99.90
3001;DHT22;1510;51.072;6.678;2023-11-21T12:25:11;11.10;99.90
3001;DHT22;1510;51.072;6.678;2023-11-21T12:27:42;11.10;99.90
3001;DHT22;1510;51.072;6.678;2023-11-21T12:30:11;11.30;99.90
3001;DHT22;1510;51.072;6.678;2023-11-21T12:32:41;11.50;99.90
3001;DHT22;1510;51.072;6.678;2023-11-21T12:35:09;11.80;99.90
3001;DHT22;1510;51.072;6.678;2023-11-21T12:37:37;11.90;99.90
3001;DHT22;1510;51.072;6.678;2023-11-21T12:40:06;12.10;99.90
3001;DHT22;1510;51.072;6.678;2023-11-21T12:42:35;12.00;99.90
3001;DHT22;1510;51.072;6.678;2023-11-21T12:45:15;11.80;99.90
3001;DHT22;1510;51.072;6.678;2023-11-21T12:47:47;11.80;99.90
3001;DHT22;1510;51.072;6.678;2023-11-21T12:50:14;11.40;99.90
3001;DHT22;1510;51.072;6.678;2023-11-21T12:52:42;11.70;99.90
3001;DHT22;1510;51.072;6.678;2023-11-21T12:55:14;11.50;99.90
3001;DHT22;1510;51.072;6.678;2023-11-21T12:57:44;11.30;99.90
3001;DHT22;1510;51.072;6.678;2023-11-21T13:00:13;11.30;99.90
3001;DHT22;1510;51.072;6.678;2023-11-21T13:02:53;11.40;99.90
3001;DHT22;1510;51.072;6.678;2023-11-21T13:05:29;11.30;99.90
3001;DHT22;1510;51.072;6.678;2023-11-21T13:07:57;11.20;99.90
3001;DHT22;1510;51.072;6.678;2023-11-21T13:10:27;11.10;99.90
3001;DHT22;1510;51.072;6.678;2023-11-21T13:12:58;10.90;99.90
3001;DHT22;1510;51.072;6.678;2023-11-21T13:15:26;10.90;99.90
3001;DHT22;1510;51.072;6.678;2023-11-21T13:17:53;10.90;99.90
3001;DHT22;1510;51.072;6.678;2023-11-21T13:20:21;10.90;99.90
3001;DHT22;1510;51.072;6.678;2023-11-21T13:22:51;10.80;99.90
3001;DHT22;1510;51.072;6.678;2023-11-21T13:25:20;10.80;99.90
3001;DHT22;1510;51.072;6.678;2023-11-21T13:27:47;10.90;99.90
3001;DHT22;1510;51.072;6.678;2023-11-21T13:30:16;10.90;99.90
3001;DHT22;1510;51.072;6.678;2023-11-21T13:32:46;10.90;99.90
3001;DHT22;1510;51.072;6.678;2023-11-21T13:35:16;10.80;99.90
3001;DHT22;1510;51.072;6.678;2023-11-21T13:37:50;10.70;99.90
3001;DHT22;1510;51.072;6.678;2023-11-21T13:40:22;10.60;99.90
3001;DHT22;1510;51.072;6.678;2023-11-21T13:42:51;10.60;99.90
3001;DHT22;1510;51.072;6.678;2023-11-21T13:45:21;10.60;99.90
3001;DHT22;1510;51.072;6.678;2023-11-21T13:47:49;10.60;99.90
3001;DHT22;1510;51.072;6.678;2023-11-21T13:50:18;10.70;99.90
3001;DHT22;1510;51.072;6.678;2023-11-21T13:52:49;10.70;99.90
3001;DHT22;1510;51.072;6.678;2023-11-21T13:55:18;10.70;99.90
3001;DHT22;1510;51.072;6.678;2023-11-21T13:57:45;10.70;99.90
3001;DHT22;1510;51.072;6.678;2023-11-21T14:00:16;10.70;99.90
3001;DHT22;1510;51.072;6.678;2023-11-21T14:02:58;10.70;99.90
3001;DHT22;1510;51.072;6.678;2023-11-21T14:05:26;10.70;99.90
3001;DHT22;1510;51.072;6.678;2023-11-21T14:07:55;10.70;99.90
3001;DHT22;1510;51.072;6.678;2023-11-21T14:10:28;10.70;99.90
3001;DHT22;1510;51.072;6.678;2023-11-21T14:13:03;10.70;99.90
3001;DHT22;1510;51.072;6.678;2023-11-21T14:15:31;10.60;99.90
3001;DHT22;1510;51.072;6.678;2023-11-21T14:18:00;10.60;99.90
3001;DHT22;1510;51.072;6.678;2023-11-21T14:20:30;10.60;99.90
3001;DHT22;1510;51.072;6.678;2023-11-21T14:22:58;10.60;99.90
3001;DHT22;1510;51.072;6.678;2023-11-21T14:25:26;10.60;99.90
3001;DHT22;1510;51.072;6.678;2023-11-21T14:27:53;10.50;99.90
3001;DHT22;1510;51.072;6.678;2023-11-21T14:30:21;10.50;99.90
3001;DHT22;1510;51.072;6.678;2023-11-21T14:32:48;10.40;99.90
3001;DHT22;1510;51.072;6.678;2023-11-21T14:35:17;10.40;99.90
3001;DHT22;1510;51.072;6.678;2023-11-21T14:37:45;10.40;99.90
3001;DHT22;1510;51.072;6.678;2023-11-21T14:40:12;10.40;99.90
3001;DHT22;1510;51.072;6.678;2023-11-21T14:42:42;10.40;99.90
3001;DHT22;1510;51.072;6.678;2023-11-21T14:45:12;10.40;99.90
3001;DHT22;1510;51.072;6.678;2023-11-21T14:47:45;10.40;99.90
3001;DHT22;1510;51.072;6.678;2023-11-21T14:50:21;10.40;99.90
3001;DHT22;1510;51.072;6.678;2023-11-21T14:53:06;10.30;99.90
3001;DHT22;1510;51.072;6.678;2023-11-21T14:55:33;10.30;99.90
3001;DHT22;1510;51.072;6.678;2023-11-21T14:58:13;10.30;99.90
3001;DHT22;1510;51.072;6.678;2023-11-21T15:00:45;10.20;99.90
3001;DHT22;1510;51.072;6.678;2023-11-21T15:03:12;10.20;99.90
3001;DHT22;1510;51.072;6.678;2023-11-21T15:06:01;10.10;99.90
3001;DHT22;1510;51.072;6.678;2023-11-21T15:08:44;9.90;99.90
3001;DHT22;1510;51.072;6.678;2023-11-21T15:11:11;9.70;99.90
3001;DHT22;1510;51.072;6.678;2023-11-21T15:13:40;9.70;99.90
3001;DHT22;1510;51.072;6.678;2023-11-21T15:16:08;9.60;99.90
3001;DHT22;1510;51.072;6.678;2023-11-21T15:18:37;9.50;99.90
3001;DHT22;1510;51.072;6.678;2023-11-21T15:21:06;9.50;99.90
3001;DHT22;1510;51.072;6.678;2023-11-21T15:23:36;9.50;99.90
3001;DHT22;1510;51.072;6.678;2023-11-21T15:26:04;9.40;99.90
3001;DHT22;1510;51.072;6.678;2023-11-21T15:28:34;9.40;99.90
3001;DHT22;1510;51.072;6.678;2023-11-21T15:31:01;9.40;99.90
3001;DHT22;1510;51.072;6.678;2023-11-21T15:33:29;9.40;99.90
3001;DHT22;1510;51.072;6.678;2023-11-21T15:35:56;9.40;99.90
3001;DHT22;1510;51.072;6.678;2023-11-21T15:38:25;9.40;99.90
3001;DHT22;1510;51.072;6.678;2023-11-21T15:40:52;9.30;99.90
3001;DHT22;1510;51.072;6.678;2023-11-21T15:43:20;9.40;99.90
3001;DHT22;1510;51.072;6.678;2023-11-21T15:45:46;9.30;99.90
3001;DHT22;1510;51.072;6.678;2023-11-21T15:48:13;9.30;99.90
3001;DHT22;1510;51.072;6.678;2023-11-21T15:50:42;9.30;99.90
3001;DHT22;1510;51.072;6.678;2023-11-21T15:53:09;9.30;99.90
3001;DHT22;1510;51.072;6.678;2023-11-21T15:55:37;9.30;99.90
3001;DHT22;1510;51.072;6.678;2023-11-21T15:58:08;9.30;99.90
3001;DHT22;1510;51.072;6.678;2023-11-21T16:00:34;9.30;99.90
3001;DHT22;1510;51.072;6.678;2023-11-21T16:03:02;9.30;99.90
3001;DHT22;1510;51.072;6.678;2023-11-21T16:05:29;9.30;99.90
3001;DHT22;1510;51.072;6.678;2023-11-21T16:07:56;9.30;99.90
3001;DHT22;1510;51.072;6.678;2023-11-21T16:10:23;9.30;99.90
3001;DHT22;1510;51.072;6.678;2023-11-21T16:12:51;9.30;99.90
3001;DHT22;1510;51.072;6.678;2023-11-21T16:15:18;9.30;99.90
3001;DHT22;1510;51.072;6.678;2023-11-21T16:17:46;9.30;99.90
3001;DHT22;1510;51.072;6.678;2023-11-21T16:20:13;9.30;99.90